METAR Data
IDs: Format: Raw Decoded Include TAF

Data at: 0631 UTC 01 Aug 2021

No METAR found for EDDT
No TAF found for EDDT

EDDF 010620Z 27004KT 240V320 9999 FEW025 17/13 Q1010 NOSIG

TAF EDDF 010500Z 0106/0212 25004KT 9999 FEW025
  PROB30
  TEMPO 0107/0111 BKN025
  BECMG 0109/0111 26009KT
  BECMG 0118/0120 21004KT


EDDM 010620Z 28008KT 9000 -SHRA BKN008 BKN040 14/13 Q1010 TEMPO SCT008

TAF EDDM 010500Z 0106/0212 30008KT 9999 SCT008 BKN020
  TEMPO 0106/0109 4000 RA BKN008
  TEMPO 0109/0112 SHRA BKN008CB
  BECMG 0112/0114 24006KT
  PROB40
  TEMPO 0116/0202 SHRA BKN035CB
  TEMPO 0209/0212 SHRA SCT008 BKN025CB


EDDV 010620Z 24003KT 190V280 9999 SCT013 BKN034 16/14 Q1008 TEMPO BKN013

TAF EDDV 010500Z 0106/0206 26009KT 9999 SCT035
  PROB30
  TEMPO 0106/0109 BKN013
  PROB40
  TEMPO 0111/0120 27015G25KT 3000 TSRA SCT014 BKN020CB
  BECMG 0119/0121 27004KT
  PROB30
  TEMPO 0122/0206 BKN006


EDDW 010620Z 23007KT 9000 BKN006 15/14 Q1007 TEMPO SCT008

TAF EDDW 010500Z 0106/0206 23007KT 9999 BKN030
  TEMPO 0106/0107 BKN007
  TEMPO 0107/0110 BKN011
  TEMPO 0110/0117 SHRA BKN013CB
  PROB30
  TEMPO 0112/0116 28015G25KT 3000 TSRA BKN013CB
  BECMG 0115/0117 30006KT
  BECMG 0201/0203 24007KT
  PROB30
  TEMPO 0203/0206 BKN006


EDDL 010620Z 22008KT 9999 FEW009 15/13 Q1009 NOSIG

TAF EDDL 010500Z 0106/0212 22005KT 9999 BKN030
  PROB30
  TEMPO 0106/0108 BKN010
  BECMG 0106/0109 22010KT
  BECMG 0110/0113 28010KT
  TEMPO 0112/0120 SHRA SCT014CB
  PROB30
  TEMPO 0114/0119 TSRA BKN015CB
  BECMG 0119/0121 25004KT
  TEMPO 0200/0209 BKN009
  PROB30
  TEMPO 0203/0206 3000 -RA BR


EDDK 010620Z 26007KT 9999 FEW013 SCT030 15/13 Q1010 NOSIG

TAF EDDK 010500Z 0106/0212 22006KT 9999 BKN030
  BECMG 0108/0110 28009KT
  TEMPO 0112/0120 SHRA SCT015CB
  PROB30
  TEMPO 0115/0118 TSRA BKN015CB
  BECMG 0118/0121 27004KT
  PROB30
  TEMPO 0204/0209 BKN010


EDDS 010620Z 16003KT 100V230 9999 -RA FEW001 SCT030 15/14 Q1011 TEMPO RA

TAF EDDS 010500Z 0106/0206 25004KT 9999 SCT025 BKN040
  TEMPO 0106/0112 RA BKN014
  TEMPO 0112/0118 SHRA BKN020CB
  PROB30
  TEMPO 0113/0118 TSRA


EDDC 010620Z 01001KT CAVOK 16/11 Q1009 NOSIG

TAF EDDC 010500Z 0106/0206 19005KT 9999 FEW045
  BECMG 0106/0108 31004KT
  BECMG 0114/0116 24006KT


EDVE 010620Z AUTO 27007KT 230V290 9999 // NCD 17/14 Q1008
No TAF found for EDVE